createdAt,value
2023-05-18T00:00:23.939Z,99377.59
2023-05-18T00:01:57.026Z,99380.16
2023-05-18T00:03:30.553Z,99387.03
2023-05-18T00:05:02.787Z,99381.00
2023-05-18T00:06:35.015Z,99379.31
2023-05-18T00:08:08.367Z,99375.78
2023-05-18T00:09:42.049Z,99370.63
2023-05-18T00:11:14.211Z,99370.72
2023-05-18T00:12:46.374Z,99374.16
2023-05-18T00:14:18.725Z,99368.13
2023-05-18T00:15:50.887Z,99368.16
2023-05-18T00:17:23.166Z,99363.06
2023-05-18T00:18:57.011Z,99364.72
2023-05-18T00:20:29.941Z,99355.22
2023-05-18T00:22:02.908Z,99355.09
2023-05-18T00:23:36.104Z,99348.19
2023-05-18T00:25:08.498Z,99353.38
2023-05-18T00:26:42.206Z,99350.72
2023-05-18T00:28:14.318Z,99350.84
2023-05-18T00:29:46.619Z,99356.13
2023-05-18T00:31:18.789Z,99365.50
2023-05-18T00:32:51.168Z,99369.78
2023-05-18T00:34:23.310Z,99380.22
2023-05-18T00:35:57.770Z,99377.56
2023-05-18T00:37:29.851Z,99381.00
2023-05-18T00:39:02.107Z,99373.31
2023-05-18T00:40:34.470Z,99378.41
2023-05-18T00:42:06.731Z,99375.00
2023-05-18T00:43:41.914Z,99379.38
2023-05-18T00:45:14.006Z,99382.97
2023-05-18T00:46:46.162Z,99384.63
2023-05-18T00:48:18.450Z,99381.13
2023-05-18T00:49:50.579Z,99381.97
2023-05-18T00:51:23.798Z,99384.38
2023-05-18T00:52:55.898Z,99386.34
2023-05-18T00:54:28.237Z,99388.81
2023-05-18T00:56:00.602Z,99396.63
2023-05-18T00:57:34.054Z,99391.31
2023-05-18T00:59:06.164Z,99397.34
2023-05-18T01:02:43.215Z,99389.53
2023-05-18T01:04:15.369Z,99387.03
2023-05-18T01:05:56.257Z,99380.94
2023-05-18T01:07:28.644Z,99386.16
2023-05-18T01:09:03.037Z,99379.97
2023-05-18T01:10:38.472Z,99386.75
2023-05-18T01:12:15.900Z,99385.97
2023-05-18T01:13:53.923Z,99386.59
2023-05-18T01:15:39.138Z,99380.56
2023-05-18T01:17:17.913Z,99389.16
2023-05-18T01:19:20.309Z,99382.31
2023-05-18T01:20:57.959Z,99390.13
2023-05-18T01:22:39.408Z,99392.88
2023-05-18T01:24:22.033Z,99392.88
2023-05-18T01:25:54.261Z,99385.97
2023-05-18T01:27:26.762Z,99388.50
2023-05-18T01:29:01.226Z,99387.66
2023-05-18T01:30:39.078Z,99383.16
2023-05-18T01:32:11.327Z,99384.13
2023-05-18T01:33:44.847Z,99382.31
2023-05-18T01:36:49.880Z,99384.91
2023-05-18T01:38:24.776Z,99383.03
2023-05-18T01:39:57.014Z,99389.22
2023-05-18T01:41:30.242Z,99385.72
2023-05-18T01:43:09.258Z,99391.66
2023-05-18T01:44:49.180Z,99390.78
2023-05-18T01:46:43.182Z,99387.31
2023-05-18T01:48:20.849Z,99395.97
2023-05-18T01:49:59.584Z,99400.34
2023-05-18T01:51:34.528Z,99402.19
2023-05-18T01:53:15.275Z,99396.97
2023-05-18T01:54:51.932Z,99405.72
2023-05-18T01:56:24.367Z,99403.28
2023-05-18T01:57:57.358Z,99399.72
2023-05-18T01:59:29.973Z,99401.44
2023-05-18T02:01:02.130Z,99407.53
2023-05-18T02:02:34.485Z,99406.66
2023-05-18T02:04:10.850Z,99407.44
2023-05-18T02:05:43.351Z,99412.78
2023-05-18T02:07:15.454Z,99416.31
2023-05-18T02:08:47.813Z,99418.94
2023-05-18T02:10:20.135Z,99424.00
2023-05-18T02:11:52.337Z,99421.38
2023-05-18T02:13:24.465Z,99424.00
2023-05-18T02:14:58.845Z,99420.47
2023-05-18T02:16:31.046Z,99424.00
2023-05-18T02:18:03.363Z,99422.19
2023-05-18T02:19:38.522Z,99418.66
2023-05-18T02:21:10.651Z,99421.25
2023-05-18T02:22:42.734Z,99417.81
2023-05-18T02:24:14.871Z,99413.56
2023-05-18T02:25:47.673Z,99424.78
2023-05-18T02:27:19.867Z,99423.06
2023-05-18T02:28:52.028Z,99423.06
2023-05-18T02:30:24.200Z,99428.28
2023-05-18T02:31:56.410Z,99424.00
2023-05-18T02:33:40.306Z,99423.81
2023-05-18T02:35:12.336Z,99426.22
2023-05-18T02:36:46.644Z,99429.06
2023-05-18T02:38:18.746Z,99426.47
2023-05-18T02:39:50.988Z,99435.97
2023-05-18T02:41:23.697Z,99434.34
2023-05-18T02:42:55.996Z,99437.81
2023-05-18T02:44:28.256Z,99444.69
2023-05-18T02:46:00.491Z,99445.66
2023-05-18T02:47:32.756Z,99443.06
2023-05-18T02:49:04.883Z,99438.88
2023-05-18T02:50:39.264Z,99444.69
2023-05-18T02:52:11.357Z,99450.03
2023-05-18T02:53:44.581Z,99450.94
2023-05-18T02:55:17.797Z,99450.03
2023-05-18T02:56:49.886Z,99454.31
2023-05-18T02:58:25.874Z,99447.38
2023-05-18T02:59:57.968Z,99452.47
2023-05-18T03:01:30.155Z,99457.72
2023-05-18T03:03:03.301Z,99456.81
2023-05-18T03:04:35.719Z,99463.72
2023-05-18T03:06:09.592Z,99459.28
2023-05-18T03:07:42.648Z,99455.06
2023-05-18T03:09:16.208Z,99461.06
2023-05-18T03:10:48.428Z,99462.81
2023-05-18T03:12:20.733Z,99461.91
2023-05-18T03:13:52.922Z,99461.06
2023-05-18T03:15:25.105Z,99467.97
2023-05-18T03:16:58.263Z,99463.59
2023-05-18T03:18:30.440Z,99464.50
2023-05-18T03:20:03.167Z,99467.97
2023-05-18T03:21:36.862Z,99476.69
2023-05-18T03:23:09.106Z,99475.91
2023-05-18T03:24:41.303Z,99477.63
2023-05-18T03:26:13.496Z,99480.28
2023-05-18T03:27:45.602Z,99482.88
2023-05-18T03:29:17.835Z,99479.59
2023-05-18T03:30:50.061Z,99487.34
2023-05-18T03:32:22.288Z,99477.84
2023-05-18T03:33:54.411Z,99487.31
2023-05-18T03:35:26.716Z,99487.31
2023-05-18T03:36:59.077Z,99491.59
2023-05-18T03:38:31.298Z,99498.50
2023-05-18T03:40:11.446Z,99489.66
2023-05-18T03:41:43.674Z,99491.59
2023-05-18T03:43:15.886Z,99495.91
2023-05-18T03:44:48.011Z,99493.41
2023-05-18T03:46:20.185Z,99498.88
2023-05-18T03:47:53.270Z,99502.34
2023-05-18T03:49:25.453Z,99499.78
2023-05-18T03:50:57.635Z,99503.41
2023-05-18T03:52:30.336Z,99501.84
2023-05-18T03:54:02.512Z,99502.75
2023-05-18T03:55:34.650Z,99505.50
2023-05-18T03:57:06.822Z,99505.66
2023-05-18T03:58:38.980Z,99510.13
2023-05-18T04:00:13.752Z,99511.94
2023-05-18T04:01:48.900Z,99518.84
2023-05-18T04:03:21.943Z,99518.84
2023-05-18T04:04:55.354Z,99516.25
2023-05-18T04:06:27.560Z,99513.56
2023-05-18T04:07:59.705Z,99522.09
2023-05-18T04:09:32.271Z,99520.28
2023-05-18T04:11:05.174Z,99518.47
2023-05-18T04:12:37.340Z,99526.34
2023-05-18T04:14:09.587Z,99518.44
2023-05-18T04:15:41.908Z,99524.44
2023-05-18T04:17:14.077Z,99528.66
2023-05-18T04:18:46.327Z,99534.66
2023-05-18T04:20:19.022Z,99534.66
2023-05-18T04:21:51.186Z,99542.38
2023-05-18T04:23:23.709Z,99545.78
2023-05-18T04:24:57.737Z,99549.22
2023-05-18T04:26:30.213Z,99545.78
2023-05-18T04:28:03.512Z,99545.78
2023-05-18T04:29:39.527Z,99552.78
2023-05-18T04:31:14.866Z,99557.09
2023-05-18T04:32:47.492Z,99558.84
2023-05-18T04:34:19.782Z,99555.41
2023-05-18T04:36:05.279Z,99559.03
2023-05-18T04:37:40.596Z,99560.84
2023-05-18T04:39:13.004Z,99563.44
2023-05-18T04:40:45.146Z,99556.41
2023-05-18T04:42:18.884Z,99565.03
2023-05-18T04:43:51.183Z,99568.44
2023-05-18T04:45:23.382Z,99575.31
2023-05-18T04:46:56.385Z,99571.91
2023-05-18T04:48:29.737Z,99578.94
2023-05-18T04:50:02.692Z,99577.03
2023-05-18T04:51:37.941Z,99575.44
2023-05-18T04:53:12.677Z,99581.44
2023-05-18T04:54:45.004Z,99583.97
2023-05-18T04:56:17.996Z,99593.50
2023-05-18T04:57:51.073Z,99587.44
2023-05-18T04:59:26.738Z,99589.41
2023-05-18T05:00:58.906Z,99587.69
2023-05-18T05:02:31.308Z,99593.72
2023-05-18T05:04:04.298Z,99586.69
2023-05-18T05:05:36.638Z,99591.06
2023-05-18T05:07:08.802Z,99597.06
2023-05-18T05:08:40.949Z,99598.72
2023-05-18T05:10:13.469Z,99594.28
2023-05-18T05:11:50.184Z,99583.97
2023-05-18T05:13:22.705Z,99597.97
2023-05-18T05:14:55.197Z,99594.53
2023-05-18T05:16:27.428Z,99607.50
2023-05-18T05:17:59.671Z,99602.16
2023-05-18T05:19:31.925Z,99607.41
2023-05-18T05:21:04.256Z,99602.19
2023-05-18T05:22:36.620Z,99611.69
2023-05-18T05:24:08.901Z,99604.72
2023-05-18T05:25:41.069Z,99609.84
2023-05-18T05:27:13.310Z,99608.16
2023-05-18T05:28:45.547Z,99614.94
2023-05-18T05:30:17.646Z,99614.91
2023-05-18T05:31:49.886Z,99624.34
2023-05-18T05:33:22.075Z,99616.47
2023-05-18T05:34:54.340Z,99618.91
2023-05-18T05:36:26.592Z,99625.13
2023-05-18T05:37:59.207Z,99614.59
2023-05-18T05:39:31.508Z,99627.69
2023-05-18T05:41:03.732Z,99630.34
2023-05-18T05:42:36.116Z,99632.03
2023-05-18T05:44:08.304Z,99627.69
2023-05-18T05:45:40.458Z,99639.69
2023-05-18T05:47:12.852Z,99631.81
2023-05-18T05:48:45.111Z,99637.88
2023-05-18T05:50:17.311Z,99643.81
2023-05-18T05:51:49.502Z,99640.41
2023-05-18T05:53:23.895Z,99636.97
2023-05-18T05:54:56.641Z,99641.19
2023-05-18T05:56:28.840Z,99643.72
2023-05-18T05:58:00.986Z,99643.72
2023-05-18T05:59:33.146Z,99643.00
2023-05-18T06:01:05.328Z,99649.16
2023-05-18T06:02:38.280Z,99655.25
2023-05-18T06:04:12.965Z,99649.38
2023-05-18T06:05:45.312Z,99644.03
2023-05-18T06:07:18.148Z,99655.94
2023-05-18T06:08:50.305Z,99655.03
2023-05-18T06:10:22.374Z,99650.69
2023-05-18T06:11:54.915Z,99656.75
2023-05-18T06:13:27.099Z,99654.00
2023-05-18T06:14:59.249Z,99656.44
2023-05-18T06:18:03.361Z,99641.88
2023-05-18T06:19:35.621Z,99654.38
2023-05-18T06:21:07.850Z,99652.78
2023-05-18T06:22:40.051Z,99654.88
2023-05-18T06:24:12.246Z,99653.75
2023-05-18T06:25:44.385Z,99656.00
2023-05-18T06:27:17.358Z,99658.56
2023-05-18T06:28:49.925Z,99663.03
2023-05-18T06:30:22.171Z,99665.81
2023-05-18T06:31:54.321Z,99662.41
2023-05-18T06:33:26.917Z,99670.22
2023-05-18T06:34:59.019Z,99660.41
2023-05-18T06:36:32.390Z,99668.75
2023-05-18T06:38:04.531Z,99674.28
2023-05-18T06:39:36.772Z,99680.19
2023-05-18T06:41:09.044Z,99681.88
2023-05-18T06:42:41.337Z,99683.84
2023-05-18T06:44:13.553Z,99688.81
2023-05-18T06:47:17.729Z,99685.31
2023-05-18T06:48:50.107Z,99688.81
2023-05-18T06:50:22.567Z,99693.09
2023-05-18T06:51:54.721Z,99693.97
2023-05-18T06:53:27.760Z,99686.91
2023-05-18T06:55:01.676Z,99701.56
2023-05-18T06:56:33.961Z,99699.75
2023-05-18T06:58:06.127Z,99708.38
2023-05-18T06:59:38.237Z,99710.22
2023-05-18T07:01:11.342Z,99708.38
2023-05-18T07:02:44.740Z,99714.38
2023-05-18T07:04:18.230Z,99712.41
2023-05-18T07:05:50.176Z,99718.50
2023-05-18T07:07:22.534Z,99720.38
2023-05-18T07:08:57.231Z,99717.81
2023-05-18T07:10:29.553Z,99731.53
2023-05-18T07:12:01.768Z,99719.59
2023-05-18T07:13:33.923Z,99732.56
2023-05-18T07:16:38.613Z,99731.16
2023-05-18T07:18:11.007Z,99736.03
2023-05-18T07:19:43.192Z,99733.13
2023-05-18T07:21:15.331Z,99735.66
2023-05-18T07:22:47.566Z,99735.56
2023-05-18T07:24:20.405Z,99740.03
2023-05-18T07:25:52.660Z,99733.91
2023-05-18T07:27:25.212Z,99740.63
2023-05-18T07:28:58.407Z,99737.72
2023-05-18T07:30:30.586Z,99736.69
2023-05-18T07:32:02.878Z,99735.75
2023-05-18T07:33:35.500Z,99737.47
2023-05-18T07:35:07.902Z,99741.66
2023-05-18T07:36:40.028Z,99732.91
2023-05-18T07:38:12.238Z,99740.63
2023-05-18T07:39:44.403Z,99738.06
2023-05-18T07:41:16.543Z,99738.03
2023-05-18T07:42:48.656Z,99739.69
2023-05-18T07:44:20.833Z,99739.94
2023-05-18T07:45:53.011Z,99750.03
2023-05-18T07:47:25.280Z,99754.09
2023-05-18T07:48:57.482Z,99751.47
2023-05-18T07:50:30.020Z,99765.44
2023-05-18T07:52:02.993Z,99759.44
2023-05-18T07:53:35.357Z,99759.34
2023-05-18T07:55:08.114Z,99764.41
2023-05-18T07:56:41.054Z,99766.78
2023-05-18T07:58:13.766Z,99768.59
2023-05-18T07:59:46.083Z,99767.56
2023-05-18T08:01:18.357Z,99763.91
2023-05-18T08:02:50.608Z,99777.03
2023-05-18T08:04:23.002Z,99768.28
2023-05-18T08:05:55.282Z,99767.25
2023-05-18T08:07:30.364Z,99773.84
2023-05-18T08:09:02.589Z,99771.38
2023-05-18T08:10:34.800Z,99773.78
2023-05-18T08:12:07.315Z,99774.31
2023-05-18T08:13:39.445Z,99776.94
2023-05-18T08:15:12.452Z,99769.25
2023-05-18T08:16:44.710Z,99776.69
2023-05-18T08:18:16.912Z,99775.69
2023-05-18T08:19:49.273Z,99770.47
2023-05-18T08:21:21.609Z,99784.19
2023-05-18T08:22:53.687Z,99781.59
2023-05-18T08:24:25.813Z,99787.59
2023-05-18T08:26:00.510Z,99784.84
2023-05-18T08:27:32.717Z,99790.00
2023-05-18T08:29:10.574Z,99787.97
2023-05-18T08:30:43.037Z,99796.59
2023-05-18T08:32:15.388Z,99795.50
2023-05-18T08:33:48.745Z,99794.56
2023-05-18T08:35:21.601Z,99802.63
2023-05-18T08:36:53.801Z,99794.53
2023-05-18T08:38:25.994Z,99793.63
2023-05-18T08:40:00.111Z,99799.63
2023-05-18T08:42:16.328Z,99802.72
2023-05-18T08:43:59.763Z,99798.31
2023-05-18T08:45:47.913Z,99797.44
2023-05-18T08:47:26.357Z,99800.09
2023-05-18T08:50:33.017Z,99809.25
2023-05-18T08:52:06.468Z,99805.91
2023-05-18T08:53:38.860Z,99807.63
2023-05-18T08:55:12.706Z,99796.22
2023-05-18T08:56:45.304Z,99809.03
2023-05-18T08:58:20.731Z,99807.16
2023-05-18T08:59:53.923Z,99811.53
2023-05-18T09:01:29.704Z,99817.59
2023-05-18T09:03:03.549Z,99823.56
2023-05-18T09:04:35.896Z,99812.03
2023-05-18T09:06:08.393Z,99817.13
2023-05-18T09:07:42.590Z,99817.13
2023-05-18T09:09:15.619Z,99816.06
2023-05-18T09:10:49.465Z,99824.69
2023-05-18T09:12:24.615Z,99828.81
2023-05-18T09:13:56.979Z,99820.41
2023-05-18T09:15:29.292Z,99824.59
2023-05-18T09:17:01.647Z,99823.44
2023-05-18T09:18:33.821Z,99824.03
2023-05-18T09:20:06.835Z,99828.41
2023-05-18T09:21:39.627Z,99838.75
2023-05-18T09:25:02.259Z,99834.38
2023-05-18T09:26:34.728Z,99827.16
2023-05-18T09:28:07.120Z,99839.31
2023-05-18T09:29:52.687Z,99838.19
2023-05-18T09:31:25.103Z,99829.22
2023-05-18T09:32:57.347Z,99828.22
2023-05-18T09:34:40.389Z,99836.69
2023-05-18T09:36:12.704Z,99833.19
2023-05-18T09:37:45.222Z,99837.16
2023-05-18T09:39:17.317Z,99834.66
2023-05-18T09:40:50.813Z,99830.16
2023-05-18T09:42:24.229Z,99834.47
2023-05-18T09:43:56.610Z,99830.00
2023-05-18T09:45:29.196Z,99830.84
2023-05-18T09:47:02.437Z,99837.59
2023-05-18T09:48:37.337Z,99833.03
2023-05-18T09:50:10.144Z,99835.75
2023-05-18T09:51:42.831Z,99831.41
2023-05-18T09:53:15.302Z,99835.09
2023-05-18T09:54:53.835Z,99834.25
2023-05-18T09:56:27.620Z,99844.06
2023-05-18T09:59:37.419Z,99845.38
2023-05-18T10:01:09.844Z,99851.00
2023-05-18T10:02:45.839Z,99860.25
2023-05-18T10:04:20.536Z,99868.44
2023-05-18T10:05:52.841Z,99876.00
2023-05-18T10:07:24.980Z,99878.97
2023-05-18T10:09:05.061Z,99878.31
2023-05-18T10:10:39.614Z,99880.53
2023-05-18T10:12:16.542Z,99875.69
2023-05-18T10:13:56.659Z,99874.91
2023-05-18T10:15:28.961Z,99863.94
2023-05-18T10:17:14.881Z,99873.44
2023-05-18T10:18:49.552Z,99874.53
2023-05-18T10:20:29.604Z,99873.75
2023-05-18T10:22:06.341Z,99863.22
2023-05-18T10:23:41.207Z,99867.59
2023-05-18T10:25:26.347Z,99872.81
2023-05-18T10:27:02.100Z,99864.91
2023-05-18T10:28:39.535Z,99872.69
2023-05-18T10:30:13.221Z,99870.97
2023-05-18T10:31:46.169Z,99871.91
2023-05-18T10:33:28.292Z,99874.53
2023-05-18T10:35:01.240Z,99874.53
2023-05-18T10:36:34.737Z,99875.16
2023-05-18T10:38:09.840Z,99869.88
2023-05-18T10:39:45.945Z,99863.56
2023-05-18T10:41:19.254Z,99866.94
2023-05-18T10:42:51.334Z,99865.91
2023-05-18T10:44:25.198Z,99861.72
2023-05-18T10:46:00.033Z,99866.13
2023-05-18T10:47:34.173Z,99864.34
2023-05-18T10:49:13.439Z,99865.19
2023-05-18T10:50:45.839Z,99865.91
2023-05-18T10:52:18.837Z,99865.91
2023-05-18T10:53:51.991Z,99860.69
2023-05-18T10:55:25.328Z,99865.81
2023-05-18T10:56:57.460Z,99862.31
2023-05-18T10:58:31.501Z,99869.94
2023-05-18T11:00:05.269Z,99869.94
2023-05-18T11:01:38.252Z,99876.00
2023-05-18T11:03:15.229Z,99879.50
2023-05-18T11:04:48.321Z,99877.94
2023-05-18T11:06:24.882Z,99890.06
2023-05-18T11:08:05.863Z,99875.31
2023-05-18T11:09:38.059Z,99878.72
2023-05-18T11:11:10.366Z,99881.34
2023-05-18T11:12:42.755Z,99880.47
2023-05-18T11:14:14.875Z,99878.88
2023-05-18T11:15:56.125Z,99879.50
2023-05-18T11:17:31.641Z,99881.34
2023-05-18T11:19:07.972Z,99876.00
2023-05-18T11:20:40.152Z,99879.63
2023-05-18T11:22:13.064Z,99882.22
2023-05-18T11:24:08.036Z,99886.28
2023-05-18T11:25:41.226Z,99895.44
2023-05-18T11:27:16.890Z,99893.53
2023-05-18T11:28:52.894Z,99896.16
2023-05-18T11:30:34.462Z,99894.31
2023-05-18T11:32:30.189Z,99885.56
2023-05-18T11:34:39.169Z,99894.00
2023-05-18T11:36:14.059Z,99899.28
2023-05-18T11:37:46.743Z,99899.47
2023-05-18T11:39:25.529Z,99901.84
2023-05-18T11:40:59.790Z,99902.63
2023-05-18T11:42:37.639Z,99898.13
2023-05-18T11:44:12.979Z,99889.22
2023-05-18T11:45:59.555Z,99877.63
2023-05-18T11:47:32.263Z,99883.06
2023-05-18T11:49:16.839Z,99887.81
2023-05-18T11:50:49.103Z,99890.50
2023-05-18T11:52:25.453Z,99901.66
2023-05-18T11:53:58.831Z,99899.06
2023-05-18T11:55:39.702Z,99891.81
2023-05-18T11:57:12.146Z,99892.91
2023-05-18T11:58:45.316Z,99895.53
2023-05-18T12:00:17.923Z,99893.69
2023-05-18T12:01:50.127Z,99889.09
2023-05-18T12:03:28.124Z,99881.84
2023-05-18T12:05:01.572Z,99879.28
2023-05-18T12:06:33.632Z,99883.31
2023-05-18T12:08:06.015Z,99880.97
2023-05-18T12:09:42.174Z,99894.78
2023-05-18T12:11:15.538Z,99905.25
2023-05-18T12:12:52.524Z,99900.56
2023-05-18T12:14:25.009Z,99902.41
2023-05-18T12:15:59.000Z,99898.06
2023-05-18T12:17:47.311Z,99894.22
2023-05-18T12:19:23.936Z,99897.72
2023-05-18T12:20:56.133Z,99898.75
2023-05-18T12:22:28.333Z,99903.06
2023-05-18T12:24:01.519Z,99893.38
2023-05-18T12:25:34.014Z,99895.09
2023-05-18T12:27:10.920Z,99899.06
2023-05-18T12:28:43.090Z,99889.28
2023-05-18T12:30:22.707Z,99893.34
2023-05-18T12:33:36.681Z,99901.88
2023-05-18T12:35:09.350Z,99892.34
2023-05-18T12:36:44.057Z,99894.97
2023-05-18T12:38:18.115Z,99900.03
2023-05-18T12:39:54.407Z,99900.91
2023-05-18T12:41:27.230Z,99900.44
2023-05-18T12:43:00.567Z,99897.66
2023-05-18T12:44:32.636Z,99908.84
2023-05-18T12:46:07.080Z,99903.72
2023-05-18T12:47:42.043Z,99904.59
2023-05-18T12:49:14.211Z,99903.81
2023-05-18T12:50:47.768Z,99897.53
2023-05-18T12:52:22.172Z,99903.66
2023-05-18T12:53:54.323Z,99908.97
2023-05-18T12:55:26.944Z,99904.59
2023-05-18T12:57:02.682Z,99894.91
2023-05-18T12:58:34.959Z,99899.19
2023-05-18T13:00:11.049Z,99889.50
2023-05-18T13:03:17.020Z,99890.44
2023-05-18T13:05:02.823Z,99896.34
2023-05-18T13:06:38.386Z,99894.75
2023-05-18T13:08:22.404Z,99898.97
2023-05-18T13:09:57.166Z,99903.53
2023-05-18T13:11:30.523Z,99895.69
2023-05-18T13:13:04.165Z,99896.31
2023-05-18T13:14:38.956Z,99904.16
2023-05-18T13:16:17.589Z,99897.31
2023-05-18T13:17:58.371Z,99897.13
2023-05-18T13:19:31.937Z,99906.91
2023-05-18T13:21:07.916Z,99898.75
2023-05-18T13:22:40.065Z,99909.31
2023-05-18T13:24:12.242Z,99901.38
2023-05-18T13:25:44.961Z,99901.31
2023-05-18T13:27:17.129Z,99906.56
2023-05-18T13:28:52.095Z,99909.16
2023-05-18T13:30:24.642Z,99910.16
2023-05-18T13:31:56.862Z,99916.25
2023-05-18T13:33:31.798Z,99906.72
2023-05-18T13:35:05.344Z,99911.94
2023-05-18T13:36:37.517Z,99910.16
2023-05-18T13:38:10.993Z,99917.19
2023-05-18T13:39:43.165Z,99912.13
2023-05-18T13:41:15.540Z,99911.28
2023-05-18T13:42:48.240Z,99909.53
2023-05-18T13:44:20.480Z,99912.34
2023-05-18T13:45:52.704Z,99906.63
2023-05-18T13:47:24.877Z,99908.56
2023-05-18T13:48:57.013Z,99913.84
2023-05-18T13:50:29.282Z,99906.22
2023-05-18T13:52:01.632Z,99906.28
2023-05-18T13:53:33.792Z,99906.53
2023-05-18T13:55:08.662Z,99909.38
2023-05-18T13:56:41.679Z,99896.75
2023-05-18T13:58:13.825Z,99901.13
2023-05-18T13:59:46.448Z,99867.16
2023-05-18T14:01:18.612Z,99902.28
2023-05-18T14:02:51.601Z,99901.50
2023-05-18T14:04:23.806Z,99916.31
2023-05-18T14:05:56.031Z,99912.00
2023-05-18T14:07:28.149Z,99912.84
2023-05-18T14:09:00.296Z,99907.69
2023-05-18T14:10:32.602Z,99907.69
2023-05-18T14:12:06.232Z,99900.88
2023-05-18T14:13:38.454Z,99894.88
2023-05-18T14:15:12.133Z,99899.97
2023-05-18T14:16:44.306Z,99894.75
2023-05-18T14:18:19.231Z,99904.22
2023-05-18T14:19:51.388Z,99893.91
2023-05-18T14:21:23.669Z,99898.00
2023-05-18T14:22:56.104Z,99903.22
2023-05-18T14:24:28.563Z,99898.78
2023-05-18T14:26:00.683Z,99906.50
2023-05-18T14:27:32.846Z,99899.56
2023-05-18T14:30:43.824Z,99907.34
2023-05-18T14:32:16.125Z,99898.66
2023-05-18T14:33:48.761Z,99903.75
2023-05-18T14:35:20.936Z,99902.78
2023-05-18T14:36:53.787Z,99904.41
2023-05-18T14:38:27.369Z,99900.94
2023-05-18T14:39:59.469Z,99898.16
2023-05-18T14:41:31.720Z,99899.72
2023-05-18T14:43:03.908Z,99898.69
2023-05-18T14:44:36.239Z,99895.09
2023-05-18T14:46:09.149Z,99896.81
2023-05-18T14:47:41.422Z,99897.66
2023-05-18T14:49:13.715Z,99898.50
2023-05-18T14:50:45.987Z,99888.94
2023-05-18T14:52:18.124Z,99895.81
2023-05-18T14:53:50.225Z,99904.56
2023-05-18T14:55:22.458Z,99894.03
2023-05-18T14:56:54.702Z,99887.91
2023-05-18T14:58:26.833Z,99895.59
2023-05-18T14:59:59.039Z,99887.91
2023-05-18T15:01:31.254Z,99885.06
2023-05-18T15:03:03.998Z,99890.28
2023-05-18T15:04:36.527Z,99888.56
2023-05-18T15:06:08.660Z,99887.75
2023-05-18T15:07:41.136Z,99888.81
2023-05-18T15:09:13.451Z,99879.38
2023-05-18T15:10:45.596Z,99876.81
2023-05-18T15:12:18.185Z,99875.06
2023-05-18T15:13:50.629Z,99882.03
2023-05-18T15:15:24.164Z,99881.34
2023-05-18T15:16:59.068Z,99883.31
2023-05-18T15:18:31.248Z,99869.31
2023-05-18T15:20:04.143Z,99872.00
2023-05-18T15:21:38.569Z,99873.63
2023-05-18T15:23:11.361Z,99872.06
2023-05-18T15:24:43.519Z,99869.59
2023-05-18T15:26:15.848Z,99875.75
2023-05-18T15:27:49.426Z,99874.06
2023-05-18T15:29:22.076Z,99877.66
2023-05-18T15:30:54.927Z,99875.88
2023-05-18T15:32:29.223Z,99879.41
2023-05-18T15:34:02.064Z,99875.16
2023-05-18T15:35:35.276Z,99871.66
2023-05-18T15:37:07.454Z,99882.19
2023-05-18T15:38:39.700Z,99882.19
2023-05-18T15:40:12.286Z,99882.19
2023-05-18T15:41:44.398Z,99873.56
2023-05-18T15:43:16.563Z,99881.47
2023-05-18T15:44:49.166Z,99871.00
2023-05-18T15:46:21.545Z,99877.06
2023-05-18T15:47:53.795Z,99873.59
2023-05-18T15:49:25.948Z,99871.00
2023-05-18T15:50:58.274Z,99878.00
2023-05-18T15:52:30.434Z,99882.44
2023-05-18T15:54:02.673Z,99886.84
2023-05-18T15:55:34.800Z,99882.56
2023-05-18T15:57:07.787Z,99885.28
2023-05-18T15:58:40.164Z,99883.56
2023-05-18T16:00:14.231Z,99888.06
2023-05-18T16:01:46.541Z,99887.38
2023-05-18T16:03:19.659Z,99888.38
2023-05-18T16:04:52.055Z,99890.22
2023-05-18T16:06:24.313Z,99888.44
2023-05-18T16:07:56.563Z,99885.94
2023-05-18T16:09:28.941Z,99888.66
2023-05-18T16:11:02.757Z,99883.53
2023-05-18T16:12:34.899Z,99895.75
2023-05-18T16:14:07.116Z,99897.53
2023-05-18T16:15:39.253Z,99899.47
2023-05-18T16:17:11.559Z,99910.94
2023-05-18T16:18:43.754Z,99911.13
2023-05-18T16:20:18.119Z,99912.97
2023-05-18T16:21:50.372Z,99914.84
2023-05-18T16:23:22.534Z,99924.53
2023-05-18T16:24:55.238Z,99917.63
2023-05-18T16:26:27.434Z,99925.50
2023-05-18T16:27:59.560Z,99932.69
2023-05-18T16:29:31.793Z,99943.22
2023-05-18T16:31:11.537Z,99946.88
2023-05-18T16:34:16.458Z,99946.25
2023-05-18T16:35:48.551Z,99943.00
2023-05-18T16:37:20.737Z,99948.28
2023-05-18T16:38:53.752Z,99949.19
2023-05-18T16:40:26.034Z,99950.19
2023-05-18T16:41:58.181Z,99951.09
2023-05-18T16:43:30.322Z,99947.69
2023-05-18T16:45:02.650Z,99955.69
2023-05-18T16:46:34.893Z,99967.94
2023-05-18T16:48:07.371Z,99974.22
2023-05-18T16:49:39.657Z,99974.25
2023-05-18T16:51:11.966Z,99971.78
2023-05-18T16:52:44.165Z,99970.19
2023-05-18T16:54:16.374Z,99978.16
2023-05-18T16:55:48.873Z,99973.91
2023-05-18T16:57:21.542Z,99964.47
2023-05-18T16:58:54.205Z,99968.97
2023-05-18T17:00:26.523Z,99972.50
2023-05-18T17:01:58.754Z,99973.47
2023-05-18T17:03:34.852Z,99967.56
2023-05-18T17:05:08.801Z,99966.72
2023-05-18T17:06:40.936Z,99958.09
2023-05-18T17:08:13.262Z,99960.81
2023-05-18T17:09:45.413Z,99969.56
2023-05-18T17:11:17.544Z,99967.00
2023-05-18T17:12:49.812Z,99970.63
2023-05-18T17:14:22.061Z,99973.28
2023-05-18T17:15:54.271Z,99976.88
2023-05-18T17:17:26.653Z,99977.06
2023-05-18T17:18:58.979Z,99978.06
2023-05-18T17:20:31.291Z,99966.22
2023-05-18T17:22:05.057Z,99963.78
2023-05-18T17:23:37.327Z,99956.00
2023-05-18T17:25:09.808Z,99950.16
2023-05-18T17:26:41.988Z,99953.81
2023-05-18T17:28:16.850Z,99958.09
2023-05-18T17:29:49.013Z,99961.63
2023-05-18T17:31:21.452Z,99958.22
2023-05-18T17:32:55.126Z,99957.44
2023-05-18T17:34:27.463Z,99960.22
2023-05-18T17:35:59.606Z,99965.44
2023-05-18T17:37:31.750Z,99961.06
2023-05-18T17:39:04.869Z,99954.13
2023-05-18T17:40:37.620Z,99957.59
2023-05-18T17:43:42.557Z,99950.94
2023-05-18T17:45:14.751Z,99956.16
2023-05-18T17:46:47.200Z,99957.97
2023-05-18T17:48:19.358Z,99963.31
2023-05-18T17:49:51.526Z,99973.78
2023-05-18T17:51:26.445Z,99967.78
2023-05-18T17:52:59.108Z,99973.91
2023-05-18T17:54:31.368Z,99973.16
2023-05-18T17:56:03.662Z,99967.22
2023-05-18T17:57:36.208Z,99977.66
2023-05-18T17:59:08.626Z,99976.91
2023-05-18T18:00:41.034Z,99979.56
2023-05-18T18:02:14.689Z,99976.16
2023-05-18T18:03:46.840Z,99977.16
2023-05-18T18:05:19.116Z,99983.28
2023-05-18T18:06:54.713Z,99976.34
2023-05-18T18:08:28.630Z,99979.88
2023-05-18T18:10:00.909Z,99976.41
2023-05-18T18:11:33.218Z,99985.19
2023-05-18T18:13:05.398Z,99987.84
2023-05-18T18:14:37.558Z,99987.94
2023-05-18T18:16:10.420Z,99991.50
2023-05-18T18:17:42.890Z,100001.06
2023-05-18T18:19:15.577Z,99997.66
2023-05-18T18:20:47.812Z,100001.22
2023-05-18T18:22:19.971Z,99991.72
2023-05-18T18:23:52.205Z,100002.06
2023-05-18T18:25:24.406Z,100010.81
2023-05-18T18:26:56.664Z,100004.84
2023-05-18T18:28:29.757Z,100007.53
2023-05-18T18:30:02.152Z,100005.00
2023-05-18T18:31:34.482Z,100002.53
2023-05-18T18:33:06.816Z,100000.75
2023-05-18T18:34:38.946Z,100004.31
2023-05-18T18:36:11.372Z,100008.63
2023-05-18T18:37:46.221Z,100007.84
2023-05-18T18:39:18.450Z,100013.97
2023-05-18T18:40:51.081Z,100014.81